Time;durP1;ratioP1;P1;durP2;ratioP2;P2;SDS_P1;SDS_P2;PMS_P1;PMS_P2;Temp;Humidity;BMP_temperature;BMP_pressure;BME280_temperature;BME280_humidity;BME280_pressure;Samples;Min_cycle;Max_cycle;Signal;HPM_P1;HPM_P2
2021/08/15 00:00:16;;;;;;;15.60;14.27;;;20.50;99.90;;;;;;6268607;22;20653;-92
2021/08/15 00:02:46;;;;;;;16.53;15.03;;;20.60;99.90;;;;;;6294153;22;20165;-92
2021/08/15 00:05:12;;;;;;;15.23;13.83;;;20.50;99.90;;;;;;6268237;22;20442;-91
2021/08/15 00:07:39;;;;;;;15.60;14.10;;;20.60;99.90;;;;;;6268464;22;20865;-91
2021/08/15 00:10:07;;;;;;;15.67;14.37;;;20.50;99.90;;;;;;6269379;22;20752;-91
2021/08/15 00:12:34;;;;;;;15.37;13.87;;;20.50;99.90;;;;;;6268682;22;20466;-91
2021/08/15 00:14:59;;;;;;;15.00;13.60;;;20.50;99.90;;;;;;6268491;22;20754;-92
2021/08/15 00:17:25;;;;;;;15.70;14.20;;;20.50;99.90;;;;;;6269089;22;20418;-91
2021/08/15 00:19:51;;;;;;;16.93;15.30;;;20.50;99.90;;;;;;6269066;22;20173;-91
2021/08/15 00:22:16;;;;;;;14.87;13.47;;;20.40;99.90;;;;;;6269675;22;20164;-91
2021/08/15 00:24:45;;;;;;;15.20;13.90;;;20.40;99.90;;;;;;6266905;22;20158;-91
2021/08/15 00:27:10;;;;;;;14.50;13.20;;;20.30;99.90;;;;;;6264408;22;20400;-92
2021/08/15 00:29:37;;;;;;;15.63;14.23;;;20.20;99.90;;;;;;6294652;22;20172;-91
2021/08/15 00:32:06;;;;;;;14.63;13.30;;;20.10;99.90;;;;;;6269343;22;20197;-92
2021/08/15 00:34:32;;;;;;;16.07;14.53;;;20.10;99.90;;;;;;6269310;22;20407;-91
2021/08/15 00:36:58;;;;;;;14.50;13.30;;;20.00;99.90;;;;;;6296957;22;20449;-92
2021/08/15 00:39:23;;;;;;;15.50;13.90;;;20.00;99.90;;;;;;6269927;22;20396;-91
2021/08/15 00:41:49;;;;;;;16.67;15.10;;;20.10;99.90;;;;;;6269227;22;20154;-91
2021/08/15 00:44:15;;;;;;;16.67;15.07;;;20.20;99.90;;;;;;6268572;22;20210;-91
2021/08/15 00:46:42;;;;;;;16.23;14.80;;;20.30;99.90;;;;;;6268212;22;20161;-92
2021/08/15 00:49:11;;;;;;;17.20;15.43;;;20.50;99.90;;;;;;6268500;22;20157;-91
2021/08/15 00:51:36;;;;;;;16.37;14.80;;;20.60;99.90;;;;;;6294810;22;20422;-92
2021/08/15 00:54:02;;;;;;;17.50;15.70;;;20.60;99.90;;;;;;6296451;22;20432;-91
2021/08/15 00:56:28;;;;;;;16.97;15.37;;;20.60;99.90;;;;;;6269117;22;20154;-91
2021/08/15 00:58:54;;;;;;;17.63;15.93;;;20.60;99.90;;;;;;6270254;22;20174;-92
2021/08/15 01:01:20;;;;;;;17.70;16.10;;;20.60;99.90;;;;;;6295924;22;20153;-91
2021/08/15 01:03:45;;;;;;;17.23;15.67;;;20.50;99.90;;;;;;6270057;22;20380;-90
2021/08/15 01:06:23;;;;;;;16.47;15.00;;;20.40;99.90;;;;;;6267577;22;20158;-91
2021/08/15 01:08:49;;;;;;;16.17;14.70;;;20.40;99.90;;;;;;6295948;22;20475;-91
2021/08/15 01:11:15;;;;;;;17.07;15.57;;;20.30;99.90;;;;;;6268250;22;20959;-90
2021/08/15 01:13:43;;;;;;;17.97;16.23;;;20.20;99.90;;;;;;6270146;22;20196;-90
2021/08/15 01:16:10;;;;;;;17.10;15.40;;;20.10;99.90;;;;;;6267419;22;20239;-91
2021/08/15 01:18:38;;;;;;;17.53;16.03;;;20.20;99.90;;;;;;6269928;22;20408;-93
2021/08/15 01:21:13;;;;;;;16.20;14.90;;;20.20;99.90;;;;;;6262089;22;20392;-93
2021/08/15 01:23:41;;;;;;;18.60;16.97;;;20.20;99.90;;;;;;6266905;22;20396;-93
2021/08/15 01:26:09;;;;;;;17.37;15.67;;;20.20;99.90;;;;;;6269284;22;20388;-92
2021/08/15 01:28:42;;;;;;;17.63;16.03;;;20.10;99.90;;;;;;6271007;22;20391;-94
2021/08/15 01:31:09;;;;;;;16.97;15.57;;;20.10;99.90;;;;;;6268252;22;20479;-94
2021/08/15 01:33:41;;;;;;;16.80;15.10;;;20.20;99.90;;;;;;6268869;22;20485;-93
2021/08/15 01:36:13;;;;;;;17.17;15.63;;;20.20;99.90;;;;;;6268617;22;20484;-93
2021/08/15 01:38:39;;;;;;;15.70;14.37;;;20.10;99.90;;;;;;6291706;22;20400;-93
2021/08/15 01:41:06;;;;;;;18.30;16.47;;;20.00;99.90;;;;;;6270198;22;20560;-93
2021/08/15 01:43:45;;;;;;;19.20;17.37;;;19.90;99.90;;;;;;6271143;22;20869;-93
2021/08/15 01:46:11;;;;;;;18.37;16.80;;;19.80;99.90;;;;;;6271180;22;20889;-94
2021/08/15 01:48:38;;;;;;;17.23;15.53;;;19.80;99.90;;;;;;6294341;22;20451;-93
2021/08/15 01:51:04;;;;;;;18.80;16.90;;;19.80;99.90;;;;;;6268519;22;20388;-92
2021/08/15 01:53:32;;;;;;;17.60;16.03;;;19.90;99.90;;;;;;6268553;22;20884;-93
2021/08/15 01:56:00;;;;;;;17.93;16.13;;;19.80;99.90;;;;;;6270216;22;20491;-92
2021/08/15 01:58:30;;;;;;;19.03;17.33;;;19.80;99.90;;;;;;6297907;22;20480;-92
2021/08/15 02:00:56;;;;;;;18.67;16.70;;;19.80;99.90;;;;;;6268673;22;20924;-92
2021/08/15 02:03:22;;;;;;;19.40;17.70;;;19.90;99.90;;;;;;6268868;22;20518;-91
2021/08/15 02:05:48;;;;;;;20.23;18.33;;;19.90;99.90;;;;;;6296646;22;20452;-91
2021/08/15 02:10:46;;;;;;;17.73;15.93;;;19.70;99.90;;;;;;6296682;22;20670;-91
2021/08/15 02:13:12;;;;;;;19.50;17.70;;;19.70;99.90;;;;;;6269935;22;20968;-91
2021/08/15 02:15:38;;;;;;;18.33;16.60;;;19.70;99.90;;;;;;6268318;22;20998;-91
2021/08/15 02:18:10;;;;;;;19.70;17.90;;;19.60;99.90;;;;;;6268874;22;20422;-91
2021/08/15 02:20:37;;;;;;;18.50;16.70;;;19.60;99.90;;;;;;6269913;22;20392;-91
2021/08/15 02:23:05;;;;;;;17.70;15.90;;;19.60;99.90;;;;;;6294977;22;20484;-92
2021/08/15 02:25:31;;;;;;;17.30;15.60;;;19.60;99.90;;;;;;6297994;22;20376;-92
2021/08/15 02:27:57;;;;;;;17.70;15.97;;;19.50;99.90;;;;;;6271471;22;20430;-92
2021/08/15 02:30:24;;;;;;;17.50;15.90;;;19.50;99.90;;;;;;6268867;22;20164;-93
2021/08/15 02:32:50;;;;;;;19.53;17.53;;;19.50;99.90;;;;;;6268983;22;20202;-92
2021/08/15 02:35:16;;;;;;;15.90;14.40;;;19.50;99.90;;;;;;6268797;22;20388;-91
2021/08/15 02:37:45;;;;;;;20.07;18.00;;;19.50;99.90;;;;;;6269338;22;20468;-91
2021/08/15 02:40:13;;;;;;;18.30;16.40;;;19.30;99.90;;;;;;6269258;22;20389;-91
2021/08/15 02:42:41;;;;;;;17.00;15.20;;;19.30;99.90;;;;;;6295319;22;20726;-91
2021/08/15 02:45:09;;;;;;;18.00;16.50;;;19.40;99.90;;;;;;6270772;22;20407;-92
2021/08/15 02:47:35;;;;;;;17.20;15.67;;;19.50;99.90;;;;;;6269747;22;20396;-91
2021/08/15 02:50:00;;;;;;;17.57;15.90;;;19.50;99.90;;;;;;6269174;22;20387;-92
2021/08/15 02:52:26;;;;;;;18.63;16.93;;;19.50;99.90;;;;;;6268893;22;20217;-91
2021/08/15 02:54:52;;;;;;;19.47;17.57;;;19.50;99.90;;;;;;6270481;22;20162;-92
2021/08/15 02:57:19;;;;;;;16.77;15.27;;;19.40;99.90;;;;;;6269946;22;20596;-92
2021/08/15 02:59:44;;;;;;;17.80;16.00;;;19.40;99.90;;;;;;6269223;22;20177;-92
2021/08/15 03:02:13;;;;;;;17.10;15.70;;;19.50;99.90;;;;;;6269823;22;20392;-92
2021/08/15 03:04:44;;;;;;;16.90;15.40;;;19.40;99.90;;;;;;6270232;22;20161;-91
2021/08/15 03:07:13;;;;;;;19.70;16.93;;;19.30;99.90;;;;;;6268871;22;20403;-91
2021/08/15 03:09:46;;;;;;;17.37;15.60;;;19.10;99.90;;;;;;6270081;22;20400;-91
2021/08/15 03:12:34;;;;;;;17.47;15.87;;;19.20;99.90;;;;;;6285883;22;20440;-91
2021/08/15 03:15:04;;;;;;;18.50;16.80;;;19.20;99.90;;;;;;6245107;22;20396;-93
2021/08/15 03:17:32;;;;;;;17.33;15.60;;;19.10;99.90;;;;;;6295921;22;20463;-93
2021/08/15 03:19:57;;;;;;;18.07;16.30;;;19.00;99.90;;;;;;6270129;22;20419;-93
2021/08/15 03:22:23;;;;;;;16.30;14.80;;;19.10;99.90;;;;;;6295122;22;20388;-91
2021/08/15 03:24:49;;;;;;;17.03;15.23;;;19.10;99.90;;;;;;6268891;22;20596;-91
2021/08/15 03:27:14;;;;;;;15.67;14.13;;;19.00;99.90;;;;;;6267701;22;20530;-91
2021/08/15 03:29:40;;;;;;;16.60;15.10;;;19.10;99.90;;;;;;6269346;22;20177;-91
2021/08/15 03:32:06;;;;;;;17.60;14.87;;;19.00;99.90;;;;;;6270471;22;20217;-92
2021/08/15 03:34:32;;;;;;;16.13;14.73;;;19.00;99.90;;;;;;6269882;22;20223;-92
2021/08/15 03:36:58;;;;;;;16.37;14.87;;;18.90;99.90;;;;;;6266217;22;20405;-91
2021/08/15 03:39:29;;;;;;;17.57;14.63;;;18.90;99.90;;;;;;6266543;22;20564;-92
2021/08/15 03:41:58;;;;;;;16.97;14.97;;;18.90;99.90;;;;;;6267070;22;20380;-91
2021/08/15 03:44:24;;;;;;;16.10;14.77;;;18.90;99.90;;;;;;6269113;22;20553;-91
2021/08/15 03:46:50;;;;;;;16.57;15.00;;;18.80;99.90;;;;;;6293379;22;20395;-92
2021/08/15 03:49:18;;;;;;;20.13;16.33;;;18.80;99.90;;;;;;6268473;22;20829;-92
2021/08/15 03:51:44;;;;;;;17.87;16.03;;;18.80;99.90;;;;;;6268458;22;20557;-91
2021/08/15 03:54:09;;;;;;;17.63;16.13;;;18.70;99.90;;;;;;6267742;22;20396;-90
2021/08/15 03:56:39;;;;;;;17.23;15.53;;;18.60;99.90;;;;;;6268333;22;20592;-92
2021/08/15 03:59:05;;;;;;;17.70;15.90;;;18.70;99.90;;;;;;6268765;22;20194;-90
2021/08/15 04:01:30;;;;;;;17.93;16.33;;;18.70;99.90;;;;;;6269360;22;20489;-92
2021/08/15 04:03:56;;;;;;;16.83;15.17;;;18.70;99.90;;;;;;6292872;22;20244;-91
2021/08/15 04:06:22;;;;;;;16.43;14.93;;;18.70;99.90;;;;;;6286769;22;20980;-92
2021/08/15 04:08:51;;;;;;;17.87;15.77;;;18.70;99.90;;;;;;6269275;22;20158;-91
2021/08/15 04:11:17;;;;;;;18.60;16.90;;;18.60;99.90;;;;;;6269435;22;20561;-92
2021/08/15 04:13:44;;;;;;;17.70;15.70;;;18.60;99.90;;;;;;6268122;22;20436;-91
2021/08/15 04:16:12;;;;;;;18.03;16.30;;;18.60;99.90;;;;;;6269391;22;20491;-91
2021/08/15 04:18:38;;;;;;;16.90;15.43;;;18.60;99.90;;;;;;6268215;22;20400;-90
2021/08/15 04:21:04;;;;;;;19.33;17.33;;;18.50;99.90;;;;;;6268873;22;20392;-92
2021/08/15 04:23:31;;;;;;;17.37;15.77;;;18.50;99.90;;;;;;6269794;22;20608;-92
2021/08/15 04:25:57;;;;;;;18.20;16.40;;;18.50;99.90;;;;;;6269098;22;20158;-91
2021/08/15 04:28:24;;;;;;;16.30;14.90;;;18.50;99.90;;;;;;6270099;22;20396;-91
2021/08/15 04:30:51;;;;;;;16.47;15.00;;;18.60;99.90;;;;;;6258885;22;20154;-92
2021/08/15 04:33:20;;;;;;;16.47;14.97;;;18.60;99.90;;;;;;6269743;22;20467;-92
2021/08/15 04:35:46;;;;;;;19.97;17.63;;;18.70;99.90;;;;;;6269159;22;20445;-93
2021/08/15 04:38:12;;;;;;;19.60;17.60;;;18.50;99.90;;;;;;6269685;22;20940;-93
2021/08/15 04:40:38;;;;;;;17.77;16.07;;;18.50;99.90;;;;;;6268663;22;20746;-93
2021/08/15 04:43:04;;;;;;;18.47;16.67;;;18.50;99.90;;;;;;6268714;22;20465;-93
2021/08/15 04:45:30;;;;;;;19.63;17.43;;;18.60;99.90;;;;;;6269858;22;20173;-92
2021/08/15 04:47:58;;;;;;;19.87;18.13;;;18.50;99.90;;;;;;6268169;22;20166;-92
2021/08/15 04:50:24;;;;;;;19.20;17.53;;;18.60;99.90;;;;;;6295810;22;20154;-93
2021/08/15 04:52:51;;;;;;;20.27;18.47;;;18.60;99.90;;;;;;6268935;22;20957;-92
2021/08/15 04:55:16;;;;;;;18.97;17.30;;;18.70;99.90;;;;;;6268514;22;20161;-93
2021/08/15 04:57:42;;;;;;;20.60;18.63;;;18.70;99.90;;;;;;6267677;22;20722;-93
2021/08/15 05:00:08;;;;;;;19.53;17.73;;;18.70;99.90;;;;;;6268216;22;20694;-92
2021/08/15 05:02:34;;;;;;;21.03;18.80;;;18.70;99.90;;;;;;6271659;22;20680;-91
2021/08/15 05:05:00;;;;;;;19.23;17.43;;;18.70;99.90;;;;;;6266104;22;20471;-91
2021/08/15 05:07:28;;;;;;;20.27;17.70;;;18.80;99.90;;;;;;6268771;22;20264;-92
2021/08/15 05:09:54;;;;;;;19.70;17.77;;;18.90;99.90;;;;;;6267691;22;20503;-93
2021/08/15 05:12:20;;;;;;;19.20;17.50;;;19.00;99.90;;;;;;6270100;22;20435;-92
2021/08/15 05:14:45;;;;;;;19.17;17.50;;;19.00;99.90;;;;;;6270286;22;20165;-91
2021/08/15 05:17:11;;;;;;;19.53;17.40;;;19.00;99.90;;;;;;6244546;22;20595;-92
2021/08/15 05:19:43;;;;;;;19.60;17.93;;;19.00;99.90;;;;;;6269271;22;20336;-90
2021/08/15 05:22:31;;;;;;;19.93;17.93;;;19.10;99.90;;;;;;6270287;22;21231;-93
2021/08/15 05:24:57;;;;;;;21.07;19.07;;;19.00;99.90;;;;;;6289409;22;20463;-91
2021/08/15 05:27:29;;;;;;;21.10;19.10;;;19.00;99.90;;;;;;6270003;22;20418;-92
2021/08/15 05:29:55;;;;;;;19.90;18.20;;;19.10;99.90;;;;;;6268912;22;20161;-91
2021/08/15 05:32:21;;;;;;;20.10;18.20;;;19.20;99.90;;;;;;6267685;22;20928;-92
2021/08/15 05:35:03;;;;;;;20.80;18.97;;;19.30;99.90;;;;;;6269672;22;20407;-91
2021/08/15 05:37:30;;;;;;;19.50;17.77;;;19.40;99.90;;;;;;6293482;22;20150;-93
2021/08/15 05:39:56;;;;;;;19.77;17.70;;;19.40;99.90;;;;;;6265188;22;21183;-89
2021/08/15 05:42:21;;;;;;;20.20;18.20;;;19.40;99.90;;;;;;6267657;22;20395;-88
2021/08/15 05:44:50;;;;;;;20.53;18.57;;;19.40;99.90;;;;;;6295287;22;20377;-93
2021/08/15 05:47:16;;;;;;;21.53;19.23;;;19.50;99.90;;;;;;6274624;22;20169;-96
2021/08/15 05:49:41;;;;;;;20.10;18.20;;;19.60;99.90;;;;;;6288858;22;20932;-92
2021/08/15 05:52:11;;;;;;;20.50;18.30;;;19.60;99.90;;;;;;6269590;22;20650;-94
2021/08/15 05:54:43;;;;;;;21.07;19.07;;;19.60;99.90;;;;;;6301197;22;20158;-93
2021/08/15 05:57:09;;;;;;;21.07;19.10;;;19.60;99.90;;;;;;6271903;22;20751;-88
2021/08/15 05:59:34;;;;;;;22.17;20.00;;;19.80;99.90;;;;;;6294704;22;20396;-89
2021/08/15 06:02:01;;;;;;;21.07;18.97;;;19.70;99.90;;;;;;6266629;22;20295;-89
2021/08/15 06:04:26;;;;;;;20.97;19.07;;;19.80;99.90;;;;;;6299938;22;20180;-87
2021/08/15 06:06:52;;;;;;;20.87;18.93;;;19.80;99.90;;;;;;6265381;22;20856;-88
2021/08/15 06:09:18;;;;;;;21.20;18.87;;;19.90;99.90;;;;;;6265995;22;20161;-88
2021/08/15 06:11:43;;;;;;;20.20;18.17;;;20.00;99.90;;;;;;6266984;22;20161;-90
2021/08/15 06:14:09;;;;;;;19.83;18.13;;;20.20;99.90;;;;;;6265398;22;20498;-90
2021/08/15 06:16:35;;;;;;;18.77;17.17;;;20.20;99.90;;;;;;6264241;22;20164;-90
2021/08/15 06:19:02;;;;;;;18.20;16.70;;;20.30;99.90;;;;;;6291742;22;20188;-93
2021/08/15 06:21:31;;;;;;;19.53;17.80;;;20.30;99.90;;;;;;6264528;22;20162;-90
2021/08/15 06:23:57;;;;;;;18.77;17.17;;;20.40;99.90;;;;;;6291035;22;20399;-88
2021/08/15 06:26:26;;;;;;;19.20;17.20;;;20.50;99.90;;;;;;6264316;22;20848;-87
2021/08/15 06:28:54;;;;;;;18.40;16.60;;;20.50;99.90;;;;;;6265318;22;20173;-89
2021/08/15 06:31:22;;;;;;;18.00;16.10;;;20.50;99.90;;;;;;6292362;22;20814;-87
2021/08/15 06:33:48;;;;;;;18.70;16.90;;;20.70;99.90;;;;;;6263719;22;20443;-88
2021/08/15 06:36:13;;;;;;;19.03;17.23;;;20.90;99.90;;;;;;6266627;22;20392;-87
2021/08/15 06:38:45;;;;;;;18.40;16.70;;;21.00;99.90;;;;;;6265406;22;20341;-88
2021/08/15 06:41:13;;;;;;;19.37;17.57;;;21.10;99.90;;;;;;6292066;22;20165;-87
2021/08/15 06:43:39;;;;;;;16.63;15.10;;;21.20;99.90;;;;;;6215196;22;20422;-86
2021/08/15 06:46:11;;;;;;;16.03;14.60;;;21.30;99.90;;;;;;6267122;22;20461;-87
2021/08/15 06:48:37;;;;;;;16.63;15.03;;;21.40;99.90;;;;;;6294698;22;20382;-86
2021/08/15 06:51:05;;;;;;;15.13;13.63;;;21.50;99.90;;;;;;6267642;22;20418;-87
2021/08/15 06:53:32;;;;;;;17.00;15.27;;;21.50;99.90;;;;;;6265398;22;20440;-88
2021/08/15 06:55:59;;;;;;;16.90;15.33;;;21.60;99.90;;;;;;6267684;22;20166;-89
2021/08/15 06:58:45;;;;;;;16.90;15.20;;;21.60;99.90;;;;;;6268376;22;20396;-88
2021/08/15 07:01:32;;;;;;;15.00;13.80;;;21.70;99.90;;;;;;6271419;22;20396;-92
2021/08/15 07:04:20;;;;;;;16.30;14.70;;;21.80;99.90;;;;;;6290988;22;20403;-91
2021/08/15 07:09:30;;;;;;;15.10;13.63;;;21.90;99.90;;;;;;6241132;22;20718;-95
2021/08/15 07:11:55;;;;;;;15.97;14.33;;;22.00;99.90;;;;;;6209287;23;20400;-89
2021/08/15 07:14:21;;;;;;;16.13;14.50;;;22.10;99.90;;;;;;6206877;23;20405;-91
2021/08/15 07:16:47;;;;;;;14.73;13.50;;;22.10;99.90;;;;;;6207622;23;20159;-90
2021/08/15 07:19:13;;;;;;;16.40;15.00;;;22.30;99.90;;;;;;6232982;23;20407;-86
2021/08/15 07:21:38;;;;;;;16.00;14.40;;;22.40;99.90;;;;;;6206831;23;20162;-86
2021/08/15 07:24:04;;;;;;;15.00;13.70;;;22.60;99.90;;;;;;6211047;23;20921;-86
2021/08/15 07:26:30;;;;;;;18.90;17.30;;;22.80;99.90;;;;;;6207302;23;20159;-87
2021/08/15 07:28:56;;;;;;;18.67;16.97;;;23.00;99.90;;;;;;6207211;23;20394;-86
2021/08/15 07:31:22;;;;;;;44.57;40.40;;;23.00;99.90;;;;;;6209113;23;20600;-85
2021/08/15 07:33:48;;;;;;;23.50;21.30;;;23.20;99.90;;;;;;6207487;23;20923;-86
2021/08/15 07:36:14;;;;;;;26.10;23.93;;;23.40;99.90;;;;;;6207227;23;20258;-86
2021/08/15 07:38:39;;;;;;;16.33;14.93;;;23.70;99.90;;;;;;6207990;23;20170;-87
2021/08/15 07:41:05;;;;;;;16.27;14.63;;;23.90;99.90;;;;;;6209481;23;20786;-86
2021/08/15 07:43:31;;;;;;;26.93;24.33;;;23.80;99.90;;;;;;6207748;23;20173;-87
2021/08/15 07:45:58;;;;;;;16.13;14.73;;;23.60;99.90;;;;;;6209349;23;20352;-87
2021/08/15 07:48:24;;;;;;;16.20;14.60;;;23.60;99.90;;;;;;6207949;23;20604;-86
2021/08/15 07:50:56;;;;;;;15.30;14.00;;;23.80;99.90;;;;;;6207703;23;20793;-86
2021/08/15 07:53:31;;;;;;;16.27;14.77;;;24.10;99.90;;;;;;6205574;23;20191;-88
2021/08/15 07:55:57;;;;;;;16.27;14.77;;;24.20;99.90;;;;;;6207222;23;20420;-86
2021/08/15 07:58:24;;;;;;;15.93;14.50;;;24.40;99.90;;;;;;6206150;23;20741;-87
2021/08/15 08:00:51;;;;;;;15.70;14.30;;;24.60;99.90;;;;;;6206523;23;20170;-86
2021/08/15 08:03:17;;;;;;;15.13;13.20;;;24.20;99.90;;;;;;6203305;23;20477;-85
2021/08/15 08:05:43;;;;;;;16.03;14.47;;;24.70;99.90;;;;;;6204630;23;20776;-83
2021/08/15 08:08:09;;;;;;;15.73;14.23;;;24.60;99.90;;;;;;6206327;23;20401;-84
2021/08/15 08:10:36;;;;;;;16.43;14.97;;;24.70;99.90;;;;;;6206857;22;20591;-86
2021/08/15 08:13:02;;;;;;;14.00;12.80;;;24.90;99.90;;;;;;6205936;23;20245;-84
2021/08/15 08:15:31;;;;;;;14.07;12.87;;;25.20;99.90;;;;;;6206285;23;20848;-87
2021/08/15 08:17:56;;;;;;;15.43;13.43;;;25.40;99.90;;;;;;6205654;23;20429;-86
2021/08/15 08:20:26;;;;;;;15.80;14.50;;;25.50;99.90;;;;;;6205727;23;20872;-85
2021/08/15 08:23:28;;;;;;;15.67;14.37;;;25.40;99.90;;;;;;6205430;23;20633;-92
2021/08/15 08:25:55;;;;;;;15.07;13.80;;;25.40;99.90;;;;;;6206227;23;20492;-90
2021/08/15 08:28:22;;;;;;;15.97;14.60;;;25.80;99.90;;;;;;6207351;23;20382;-91
2021/08/15 08:30:48;;;;;;;15.43;13.83;;;26.00;99.90;;;;;;6206439;23;20798;-89
2021/08/15 08:33:50;;;;;;;13.80;12.60;;;26.30;99.90;;;;;;6208774;23;20424;-95
2021/08/15 08:36:16;;;;;;;14.67;13.40;;;26.60;99.90;;;;;;6206871;23;20167;-91
2021/08/15 08:38:42;;;;;;;14.27;13.07;;;;;;;;;;6206906;23;20400;-93
2021/08/15 08:43:47;;;;;;;14.10;12.73;;;26.90;99.90;;;;;;6235914;22;20448;-96
2021/08/15 08:46:16;;;;;;;13.07;11.97;;;27.90;99.90;;;;;;6236434;22;20403;-95
2021/08/15 08:48:42;;;;;;;13.30;12.20;;;26.30;99.90;;;;;;6236426;22;20702;-93
2021/08/15 08:51:13;;;;;;;13.33;12.13;;;26.00;99.90;;;;;;6234730;22;20382;-95
2021/08/15 08:53:39;;;;;;;13.70;12.30;;;26.30;99.90;;;;;;6232126;22;20174;-91
2021/08/15 08:56:05;;;;;;;12.63;11.57;;;26.60;99.90;;;;;;6231531;22;20751;-94
2021/08/15 08:58:30;;;;;;;13.40;12.30;;;26.90;99.90;;;;;;6231868;22;20457;-94
2021/08/15 09:01:08;;;;;;;13.47;12.27;;;26.90;99.90;;;;;;6233836;22;20448;-96
2021/08/15 09:03:37;;;;;;;13.67;12.57;;;26.60;99.90;;;;;;6240886;22;20198;-96
2021/08/15 09:06:19;;;;;;;14.40;13.20;;;27.10;99.90;;;;;;6238678;22;20477;-96
2021/08/15 09:08:49;;;;;;;13.40;12.10;;;27.30;99.90;;;;;;6235762;22;20426;-95
2021/08/15 09:11:26;;;;;;;12.67;11.47;;;27.50;99.90;;;;;;6264576;22;20393;-96
2021/08/15 09:14:05;;;;;;;12.63;11.63;;;27.50;99.90;;;;;;6234767;22;20794;-91
2021/08/15 09:17:00;;;;;;;11.93;11.00;;;27.70;99.90;;;;;;6232349;22;20417;-90
2021/08/15 09:19:28;;;;;;;13.60;12.40;;;28.10;99.90;;;;;;6233088;22;20429;-85
2021/08/15 09:21:57;;;;;;;14.00;12.00;;;28.70;99.90;;;;;;6233995;22;20382;-90
2021/08/15 09:24:23;;;;;;;13.10;11.90;;;28.80;99.90;;;;;;6233090;22;20686;-90
2021/08/15 09:26:57;;;;;;;14.20;12.80;;;28.70;99.90;;;;;;6231350;22;20394;-89
2021/08/15 09:29:24;;;;;;;14.13;12.90;;;27.90;99.90;;;;;;6232661;22;20166;-89
2021/08/15 09:31:50;;;;;;;15.40;14.00;;;26.80;99.90;;;;;;6235433;22;20397;-89
2021/08/15 09:34:29;;;;;;;13.47;12.37;;;26.70;99.90;;;;;;6232046;22;20424;-89
2021/08/15 09:36:55;;;;;;;14.03;12.93;;;26.90;99.90;;;;;;6227502;22;20412;-89
2021/08/15 09:39:35;;;;;;;14.37;13.13;;;27.00;99.90;;;;;;6232034;22;20398;-93
2021/08/15 09:42:01;;;;;;;14.53;13.33;;;27.50;99.90;;;;;;6233261;22;20468;-93
2021/08/15 09:44:29;;;;;;;14.20;13.00;;;27.70;99.90;;;;;;6231592;22;20444;-93
2021/08/15 09:46:59;;;;;;;12.80;11.70;;;28.00;99.90;;;;;;6232356;22;20400;-92
2021/08/15 09:49:37;;;;;;;14.63;12.20;;;28.30;99.90;;;;;;6232040;22;21020;-92
2021/08/15 09:52:04;;;;;;;12.80;11.60;;;28.60;99.90;;;;;;6231926;22;20785;-93
2021/08/15 09:54:32;;;;;;;12.50;11.43;;;29.00;99.90;;;;;;6232593;22;20897;-91
2021/08/15 09:56:59;;;;;;;12.13;11.00;;;29.50;99.70;;;;;;6233102;22;20397;-92
2021/08/15 09:59:31;;;;;;;12.00;11.10;;;29.30;99.10;;;;;;6231951;22;20406;-92
2021/08/15 10:01:57;;;;;;;12.77;11.80;;;29.10;99.50;;;;;;6229622;22;20716;-91
2021/08/15 10:04:24;;;;;;;12.83;11.63;;;29.10;99.90;;;;;;6233690;22;20405;-91
2021/08/15 10:06:51;;;;;;;12.70;11.67;;;28.90;99.70;;;;;;6235170;22;20151;-89
2021/08/15 10:09:21;;;;;;;12.80;11.57;;;28.60;99.90;;;;;;6233041;22;20401;-87
2021/08/15 10:11:47;;;;;;;12.00;11.00;;;28.60;99.80;;;;;;6233319;22;20408;-88
2021/08/15 10:14:15;;;;;;;12.03;11.03;;;28.60;99.40;;;;;;6231702;22;20478;-86
2021/08/15 10:16:54;;;;;;;12.13;11.03;;;28.50;99.40;;;;;;6234843;22;20432;-87
2021/08/15 10:19:38;;;;;;;11.97;10.97;;;28.50;99.90;;;;;;6233065;22;20409;-87
2021/08/15 10:22:04;;;;;;;11.63;10.60;;;28.80;99.80;;;;;;6231346;22;20693;-87
2021/08/15 10:24:44;;;;;;;10.90;9.93;;;29.30;97.40;;;;;;6231545;22;20477;-86
2021/08/15 10:27:09;;;;;;;11.33;10.33;;;29.90;97.10;;;;;;6257486;22;20389;-86
2021/08/15 10:29:37;;;;;;;12.20;11.00;;;30.00;96.20;;;;;;6234051;22;20398;-86
2021/08/15 10:32:14;;;;;;;11.10;10.10;;;30.00;95.50;;;;;;6235622;22;20486;-86
2021/08/15 10:34:52;;;;;;;11.63;10.50;;;29.90;96.60;;;;;;6233987;22;20393;-85
2021/08/15 10:37:26;;;;;;;11.33;10.23;;;29.20;96.90;;;;;;6234916;22;20382;-86
2021/08/15 10:40:04;;;;;;;11.57;10.67;;;29.40;97.30;;;;;;6234280;22;20408;-85
2021/08/15 10:42:39;;;;;;;12.57;10.87;;;30.40;98.00;;;;;;6233372;22;20800;-85
2021/08/15 10:45:07;;;;;;;10.60;9.53;;;30.60;95.80;;;;;;6234641;22;20413;-86
2021/08/15 10:47:34;;;;;;;11.67;10.60;;;30.70;95.60;;;;;;6261038;22;20465;-85
2021/08/15 10:50:09;;;;;;;11.63;10.60;;;30.40;95.10;;;;;;6234590;22;20394;-86
2021/08/15 10:52:44;;;;;;;11.60;10.30;;;30.20;95.50;;;;;;6234211;22;20503;-85
2021/08/15 10:55:18;;;;;;;11.33;10.27;;;29.70;95.60;;;;;;6235257;22;20455;-85
2021/08/15 10:57:46;;;;;;;13.90;10.50;;;29.50;96.20;;;;;;6235505;22;20436;-86
2021/08/15 11:00:30;;;;;;;11.40;10.30;;;29.50;95.90;;;;;;6234212;22;20400;-85
2021/08/15 11:03:15;;;;;;;11.03;9.93;;;30.30;95.60;;;;;;6234259;22;20434;-86
2021/08/15 11:05:40;;;;;;;11.23;10.13;;;30.60;93.80;;;;;;6234801;22;20675;-85
2021/08/15 11:08:47;;;;;;;12.33;10.00;;;30.60;94.50;;;;;;6235238;22;20394;-85
2021/08/15 11:11:16;;;;;;;11.67;10.67;;;29.90;95.40;;;;;;6202812;22;20436;-86
2021/08/15 11:13:42;;;;;;;13.20;11.10;;;29.40;95.90;;;;;;6234533;22;20471;-85
2021/08/15 11:16:26;;;;;;;13.57;10.67;;;29.20;96.60;;;;;;6234403;22;20404;-85
2021/08/15 11:19:07;;;;;;;11.37;10.17;;;29.40;96.00;;;;;;6233393;22;20169;-85
2021/08/15 11:22:00;;;;;;;11.10;10.00;;;29.30;95.60;;;;;;6235397;22;20770;-85
2021/08/15 11:24:27;;;;;;;10.57;9.60;;;29.30;95.70;;;;;;6234795;22;20495;-85
2021/08/15 11:26:54;;;;;;;12.37;11.33;;;29.90;95.50;;;;;;6260592;22;20785;-86
2021/08/15 11:29:21;;;;;;;10.93;9.93;;;30.70;95.30;;;;;;6233751;22;20409;-86
2021/08/15 11:31:48;;;;;;;10.67;9.63;;;31.30;93.60;;;;;;6258941;22;20390;-86
2021/08/15 11:34:14;;;;;;;11.07;10.07;;;31.60;92.60;;;;;;6259111;22;20444;-86
2021/08/15 11:36:39;;;;;;;10.97;10.03;;;31.50;92.00;;;;;;6233582;22;20394;-85
2021/08/15 11:39:08;;;;;;;10.93;9.83;;;31.70;92.10;;;;;;6234807;22;20475;-86
2021/08/15 11:41:40;;;;;;;9.80;9.00;;;32.20;93.40;;;;;;6234478;23;20647;-86
2021/08/15 11:44:06;;;;;;;11.57;10.47;;;32.50;93.60;;;;;;6233009;23;20424;-86
2021/08/15 11:46:32;;;;;;;11.70;10.70;;;32.10;91.50;;;;;;6234050;22;20402;-86
2021/08/15 11:48:57;;;;;;;12.30;11.33;;;31.30;93.50;;;;;;6234699;22;20163;-86
2021/08/15 11:51:23;;;;;;;11.00;10.00;;;30.70;94.70;;;;;;6235442;22;20229;-85
2021/08/15 11:53:49;;;;;;;11.80;10.90;;;30.00;95.90;;;;;;6234701;22;20198;-86
2021/08/15 11:56:18;;;;;;;11.47;10.47;;;29.50;97.30;;;;;;6233632;22;20241;-86
2021/08/15 11:58:45;;;;;;;11.33;10.17;;;29.40;96.80;;;;;;6234337;22;20416;-86
2021/08/15 12:01:12;;;;;;;10.73;9.70;;;29.20;97.60;;;;;;6232784;22;20416;-85
2021/08/15 12:03:38;;;;;;;10.77;9.87;;;29.20;97.00;;;;;;6260869;22;20866;-86
2021/08/15 12:06:08;;;;;;;11.50;10.60;;;29.70;98.00;;;;;;6234200;22;20430;-85
2021/08/15 12:08:40;;;;;;;11.53;10.43;;;30.00;96.00;;;;;;6234621;22;20178;-86
2021/08/15 12:11:27;;;;;;;13.30;11.90;;;29.70;96.40;;;;;;6233050;22;20484;-86
2021/08/15 12:14:08;;;;;;;12.40;11.20;;;29.40;97.70;;;;;;6233484;22;20556;-85
2021/08/15 12:16:35;;;;;;;11.03;10.13;;;29.00;99.70;;;;;;6232670;22;20405;-85
2021/08/15 12:19:01;;;;;;;16.50;11.70;;;28.70;99.90;;;;;;6233920;22;20406;-86
2021/08/15 12:21:38;;;;;;;12.23;10.93;;;28.60;99.90;;;;;;6233320;22;20719;-86
2021/08/15 12:24:22;;;;;;;11.40;10.50;;;28.80;99.90;;;;;;6233840;22;20451;-86
2021/08/15 12:27:05;;;;;;;12.37;11.07;;;29.00;98.90;;;;;;6232419;22;20702;-85
2021/08/15 12:29:37;;;;;;;11.20;10.20;;;28.90;99.10;;;;;;6233973;22;20393;-85
2021/08/15 12:32:19;;;;;;;11.73;10.30;;;28.60;99.10;;;;;;6234153;22;21374;-86
2021/08/15 12:34:55;;;;;;;12.03;11.00;;;28.50;99.60;;;;;;6234566;22;20725;-86
2021/08/15 12:37:23;;;;;;;12.57;11.30;;;28.30;99.90;;;;;;6229927;22;20394;-86
2021/08/15 12:40:03;;;;;;;13.03;11.67;;;27.90;99.90;;;;;;6233148;22;20401;-85
2021/08/15 12:42:30;;;;;;;13.40;12.20;;;27.60;99.90;;;;;;6233336;22;20495;-86
2021/08/15 12:44:58;;;;;;;13.87;12.67;;;27.10;99.90;;;;;;6233368;22;20408;-86